sensor_id;sensor_type;location;lat;lon;timestamp;pressure;altitude;pressure_sealevel;temperature;humidity
44934;BME280;30667;43.614;1.442;2023-03-02T00:04:37;100135.38;;;1.99;98.64
44934;BME280;30667;43.614;1.442;2023-03-02T00:07:05;100139.28;;;1.97;99.63
44934;BME280;30667;43.614;1.442;2023-03-02T00:09:33;100126.16;;;1.95;100.00
44934;BME280;30667;43.614;1.442;2023-03-02T00:11:58;100134.38;;;1.94;100.00
44934;BME280;30667;43.614;1.442;2023-03-02T00:14:24;100142.81;;;1.91;100.00
44934;BME280;30667;43.614;1.442;2023-03-02T00:16:49;100146.94;;;1.87;100.00
44934;BME280;30667;43.614;1.442;2023-03-02T00:19:15;100149.03;;;1.85;100.00
44934;BME280;30667;43.614;1.442;2023-03-02T00:21:40;100156.44;;;1.83;100.00
44934;BME280;30667;43.614;1.442;2023-03-02T00:24:06;100155.63;;;1.82;100.00
44934;BME280;30667;43.614;1.442;2023-03-02T00:26:33;100153.34;;;1.86;100.00
44934;BME280;30667;43.614;1.442;2023-03-02T00:28:59;100144.75;;;1.84;100.00
44934;BME280;30667;43.614;1.442;2023-03-02T00:31:25;100149.03;;;1.85;100.00
44934;BME280;30667;43.614;1.442;2023-03-02T00:33:51;100151.97;;;1.76;100.00
44934;BME280;30667;43.614;1.442;2023-03-02T00:36:20;100152.13;;;1.81;100.00
44934;BME280;30667;43.614;1.442;2023-03-02T00:38:46;100148.28;;;1.77;100.00
44934;BME280;30667;43.614;1.442;2023-03-02T00:41:13;100151.75;;;1.78;100.00
44934;BME280;30667;43.614;1.442;2023-03-02T00:43:39;100154.41;;;1.78;100.00
44934;BME280;30667;43.614;1.442;2023-03-02T00:46:13;100154.03;;;1.74;100.00
44934;BME280;30667;43.614;1.442;2023-03-02T00:48:38;100153.19;;;1.74;100.00
44934;BME280;30667;43.614;1.442;2023-03-02T00:51:05;100156.91;;;1.73;100.00
44934;BME280;30667;43.614;1.442;2023-03-02T00:53:31;100159.97;;;1.76;100.00
44934;BME280;30667;43.614;1.442;2023-03-02T00:55:56;100157.28;;;1.76;100.00
44934;BME280;30667;43.614;1.442;2023-03-02T00:58:22;100148.91;;;1.73;100.00
44934;BME280;30667;43.614;1.442;2023-03-02T01:00:47;100151.97;;;1.76;100.00
44934;BME280;30667;43.614;1.442;2023-03-02T01:03:13;100149.72;;;1.73;100.00
44934;BME280;30667;43.614;1.442;2023-03-02T01:05:38;100150.75;;;1.72;100.00
44934;BME280;30667;43.614;1.442;2023-03-02T01:08:03;100149.72;;;1.73;100.00
44934;BME280;30667;43.614;1.442;2023-03-02T01:10:32;100153.81;;;1.76;100.00
44934;BME280;30667;43.614;1.442;2023-03-02T01:12:58;100160.78;;;1.77;100.00
44934;BME280;30667;43.614;1.442;2023-03-02T01:15:23;100156.88;;;1.79;100.00
44934;BME280;30667;43.614;1.442;2023-03-02T01:17:49;100154.19;;;1.79;100.00
44934;BME280;30667;43.614;1.442;2023-03-02T01:20:15;100155.00;;;1.80;100.00
44934;BME280;30667;43.614;1.442;2023-03-02T01:22:42;100153.94;;;1.88;100.00
44934;BME280;30667;43.614;1.442;2023-03-02T01:25:09;100150.88;;;1.84;100.00
44934;BME280;30667;43.614;1.442;2023-03-02T01:27:35;100157.03;;;1.85;100.00
44934;BME280;30667;43.614;1.442;2023-03-02T01:30:00;100155.19;;;1.85;100.00
44934;BME280;30667;43.614;1.442;2023-03-02T01:32:26;100143.69;;;1.85;100.00
44934;BME280;30667;43.614;1.442;2023-03-02T01:34:51;100151.69;;;1.85;100.00
44934;BME280;30667;43.614;1.442;2023-03-02T01:37:16;100153.34;;;1.86;100.00
44934;BME280;30667;43.614;1.442;2023-03-02T01:39:42;100149.19;;;1.90;100.00
44934;BME280;30667;43.614;1.442;2023-03-02T01:42:08;100141.19;;;1.90;100.00
44934;BME280;30667;43.614;1.442;2023-03-02T01:44:43;100142.97;;;1.96;100.00
44934;BME280;30667;43.614;1.442;2023-03-02T01:47:24;100137.06;;;1.94;100.00
44934;BME280;30667;43.614;1.442;2023-03-02T01:52:30;100138.41;;;2.03;100.00
44934;BME280;30667;43.614;1.442;2023-03-02T01:55:01;100140.25;;;2.03;100.00
44934;BME280;30667;43.614;1.442;2023-03-02T01:57:32;100132.88;;;2.05;100.00
44934;BME280;30667;43.614;1.442;2023-03-02T02:00:03;100133.47;;;2.07;100.00
44934;BME280;30667;43.614;1.442;2023-03-02T02:02:34;100136.50;;;2.10;100.00
44934;BME280;30667;43.614;1.442;2023-03-02T02:05:01;100134.88;;;2.09;100.00
44934;BME280;30667;43.614;1.442;2023-03-02T02:07:27;100125.59;;;2.12;100.00
44934;BME280;30667;43.614;1.442;2023-03-02T02:09:53;100128.28;;;2.12;100.00
44934;BME280;30667;43.614;1.442;2023-03-02T02:12:22;100133.59;;;2.12;100.00
44934;BME280;30667;43.614;1.442;2023-03-02T02:14:48;100130.13;;;2.11;100.00
44934;BME280;30667;43.614;1.442;2023-03-02T02:17:15;100129.09;;;2.12;100.00
44934;BME280;30667;43.614;1.442;2023-03-02T02:22:18;100127.84;;;2.15;100.00
44934;BME280;30667;43.614;1.442;2023-03-02T02:24:54;100127.19;;;2.20;100.00
44934;BME280;30667;43.614;1.442;2023-03-02T02:27:23;100134.53;;;2.24;100.00
44934;BME280;30667;43.614;1.442;2023-03-02T02:29:55;100129.56;;;2.28;100.00
44934;BME280;30667;43.614;1.442;2023-03-02T02:32:27;100129.84;;;2.20;100.00
44934;BME280;30667;43.614;1.442;2023-03-02T02:35:08;100127.84;;;2.15;100.00
44934;BME280;30667;43.614;1.442;2023-03-02T02:37:41;100122.34;;;2.10;100.00
44934;BME280;30667;43.614;1.442;2023-03-02T02:40:14;100118.44;;;2.12;100.00
44934;BME280;30667;43.614;1.442;2023-03-02T02:42:44;100120.41;;;2.17;100.00
44934;BME280;30667;43.614;1.442;2023-03-02T02:45:30;100125.16;;;2.15;100.00
44934;BME280;30667;43.614;1.442;2023-03-02T02:47:56;100109.66;;;2.05;100.00
44934;BME280;30667;43.614;1.442;2023-03-02T02:50:30;100114.34;;;2.10;100.00
44934;BME280;30667;43.614;1.442;2023-03-02T02:53:17;100123.78;;;2.12;100.00
44934;BME280;30667;43.614;1.442;2023-03-02T02:55:49;100116.19;;;2.09;100.00
44934;BME280;30667;43.614;1.442;2023-03-02T02:58:39;100120.91;;;2.07;100.00
44934;BME280;30667;43.614;1.442;2023-03-02T03:01:06;100124.22;;;2.09;100.00
44934;BME280;30667;43.614;1.442;2023-03-02T03:03:35;100116.56;;;2.13;100.00
44934;BME280;30667;43.614;1.442;2023-03-02T03:06:08;100125.00;;;2.10;100.00
44934;BME280;30667;43.614;1.442;2023-03-02T03:11:09;100122.88;;;2.18;100.00
44934;BME280;30667;43.614;1.442;2023-03-02T03:13:36;100118.00;;;2.15;100.00
44934;BME280;30667;43.614;1.442;2023-03-02T03:16:04;100114.13;;;2.11;100.00
44934;BME280;30667;43.614;1.442;2023-03-02T03:18:30;100124.16;;;2.16;100.00
44934;BME280;30667;43.614;1.442;2023-03-02T03:20:56;100119.69;;;2.10;100.00
44934;BME280;30667;43.614;1.442;2023-03-02T03:23:22;100124.16;;;2.16;100.00
44934;BME280;30667;43.614;1.442;2023-03-02T03:25:48;100120.03;;;2.13;100.00
44934;BME280;30667;43.614;1.442;2023-03-02T03:28:13;100124.16;;;2.16;100.00
44934;BME280;30667;43.614;1.442;2023-03-02T03:30:38;100115.16;;;2.10;100.00
44934;BME280;30667;43.614;1.442;2023-03-02T03:33:04;100119.91;;;2.08;100.00
44934;BME280;30667;43.614;1.442;2023-03-02T03:35:30;100125.00;;;2.10;100.00
44934;BME280;30667;43.614;1.442;2023-03-02T03:37:55;100130.13;;;2.11;100.00
44934;BME280;30667;43.614;1.442;2023-03-02T03:40:21;100127.03;;;2.14;100.00
44934;BME280;30667;43.614;1.442;2023-03-02T03:42:46;100124.44;;;2.08;100.00
44934;BME280;30667;43.614;1.442;2023-03-02T03:45:11;100137.38;;;2.04;100.00
44934;BME280;30667;43.614;1.442;2023-03-02T03:47:37;100135.09;;;2.08;100.00
44934;BME280;30667;43.614;1.442;2023-03-02T03:50:03;100132.66;;;2.06;100.00
44934;BME280;30667;43.614;1.442;2023-03-02T03:52:28;100141.09;;;2.03;100.00
44934;BME280;30667;43.614;1.442;2023-03-02T03:54:58;100126.09;;;2.02;100.00
44934;BME280;30667;43.614;1.442;2023-03-02T03:57:25;100128.13;;;2.07;100.00
44934;BME280;30667;43.614;1.442;2023-03-02T03:59:51;100131.00;;;2.05;100.00
44934;BME280;30667;43.614;1.442;2023-03-02T04:02:17;100124.66;;;2.06;100.00
44934;BME280;30667;43.614;1.442;2023-03-02T04:04:42;100119.75;;;2.03;100.00
44934;BME280;30667;43.614;1.442;2023-03-02T04:07:09;100118.31;;;2.00;100.00
44934;BME280;30667;43.614;1.442;2023-03-02T04:09:35;100126.75;;;1.97;100.00
44934;BME280;30667;43.614;1.442;2023-03-02T04:12:02;100124.91;;;1.98;100.00
44934;BME280;30667;43.614;1.442;2023-03-02T04:14:28;100122.56;;;2.08;100.00
44934;BME280;30667;43.614;1.442;2023-03-02T04:16:54;100124.03;;;2.04;100.00
44934;BME280;30667;43.614;1.442;2023-03-02T04:19:20;100127.09;;;2.08;100.00
44934;BME280;30667;43.614;1.442;2023-03-02T04:21:49;100126.66;;;2.11;100.00
44934;BME280;30667;43.614;1.442;2023-03-02T04:24:16;100133.03;;;2.10;100.00
44934;BME280;30667;43.614;1.442;2023-03-02T04:26:43;100130.28;;;2.16;100.00
44934;BME280;30667;43.614;1.442;2023-03-02T04:29:09;100130.84;;;2.25;100.00
44934;BME280;30667;43.614;1.442;2023-03-02T04:31:35;100128.59;;;2.22;100.00
44934;BME280;30667;43.614;1.442;2023-03-02T04:34:01;100131.72;;;2.19;100.00
44934;BME280;30667;43.614;1.442;2023-03-02T04:36:30;100133.53;;;2.18;100.00
44934;BME280;30667;43.614;1.442;2023-03-02T04:38:56;100135.78;;;2.22;100.00
44934;BME280;30667;43.614;1.442;2023-03-02T04:41:21;100132.66;;;2.25;100.00
44934;BME280;30667;43.614;1.442;2023-03-02T04:43:47;100139.66;;;2.26;100.00
44934;BME280;30667;43.614;1.442;2023-03-02T04:46:19;100135.34;;;2.25;100.00
44934;BME280;30667;43.614;1.442;2023-03-02T04:48:45;100130.63;;;2.27;100.00
44934;BME280;30667;43.614;1.442;2023-03-02T04:51:19;100140.88;;;2.30;100.00
44934;BME280;30667;43.614;1.442;2023-03-02T04:53:49;100135.88;;;2.33;100.00
44934;BME280;30667;43.614;1.442;2023-03-02T04:56:15;100138.78;;;2.32;100.00
44934;BME280;30667;43.614;1.442;2023-03-02T04:58:40;100133.22;;;2.33;100.00
44934;BME280;30667;43.614;1.442;2023-03-02T05:01:06;100133.22;;;2.33;100.00
44934;BME280;30667;43.614;1.442;2023-03-02T05:03:32;100138.13;;;2.36;100.00
44934;BME280;30667;43.614;1.442;2023-03-02T05:05:58;100141.81;;;2.35;100.00
44934;BME280;30667;43.614;1.442;2023-03-02T05:08:23;100141.00;;;2.35;100.00
44934;BME280;30667;43.614;1.442;2023-03-02T05:10:49;100150.84;;;2.34;100.00
44934;BME280;30667;43.614;1.442;2023-03-02T05:13:14;100159.25;;;2.38;100.00
44934;BME280;30667;43.614;1.442;2023-03-02T05:15:40;100146.13;;;2.36;100.00
44934;BME280;30667;43.614;1.442;2023-03-02T05:18:07;100151.47;;;2.36;100.00
44934;BME280;30667;43.614;1.442;2023-03-02T05:20:33;100160.88;;;2.39;100.00
44934;BME280;30667;43.614;1.442;2023-03-02T05:23:02;100157.84;;;2.35;100.00
44934;BME280;30667;43.614;1.442;2023-03-02T05:25:29;100155.16;;;2.35;100.00
44934;BME280;30667;43.614;1.442;2023-03-02T05:27:55;100162.75;;;2.39;100.00
44934;BME280;30667;43.614;1.442;2023-03-02T05:30:21;100158.44;;;2.38;100.00
44934;BME280;30667;43.614;1.442;2023-03-02T05:32:47;100161.53;;;2.34;100.00
44934;BME280;30667;43.614;1.442;2023-03-02T05:35:13;100165.03;;;2.35;100.00
44934;BME280;30667;43.614;1.442;2023-03-02T05:37:39;100162.16;;;2.36;100.00
44934;BME280;30667;43.614;1.442;2023-03-02T05:40:08;100163.41;;;2.34;100.00
44934;BME280;30667;43.614;1.442;2023-03-02T05:42:34;100164.00;;;2.36;100.00
44934;BME280;30667;43.614;1.442;2023-03-02T05:45:02;100166.22;;;2.39;100.00
44934;BME280;30667;43.614;1.442;2023-03-02T05:47:28;100175.88;;;2.40;100.00
44934;BME280;30667;43.614;1.442;2023-03-02T05:49:53;100172.84;;;2.36;100.00
44934;BME280;30667;43.614;1.442;2023-03-02T05:52:18;100177.75;;;2.40;100.00
44934;BME280;30667;43.614;1.442;2023-03-02T05:54:44;100176.69;;;2.41;100.00
44934;BME280;30667;43.614;1.442;2023-03-02T05:57:09;100175.88;;;2.40;100.00
44934;BME280;30667;43.614;1.442;2023-03-02T05:59:35;100177.88;;;2.45;100.00
44934;BME280;30667;43.614;1.442;2023-03-02T06:02:00;100180.41;;;2.40;100.00
44934;BME280;30667;43.614;1.442;2023-03-02T06:04:25;100179.56;;;2.39;100.00
44934;BME280;30667;43.614;1.442;2023-03-02T06:06:51;100177.53;;;2.41;100.00
44934;BME280;30667;43.614;1.442;2023-03-02T06:09:16;100181.00;;;2.42;100.00
44934;BME280;30667;43.614;1.442;2023-03-02T06:11:42;100174.00;;;2.41;100.00
44934;BME280;30667;43.614;1.442;2023-03-02T06:14:07;100182.44;;;2.44;100.00
44934;BME280;30667;43.614;1.442;2023-03-02T06:16:32;100182.66;;;2.43;100.00
44934;BME280;30667;43.614;1.442;2023-03-02T06:19:00;100191.25;;;2.45;100.00
44934;BME280;30667;43.614;1.442;2023-03-02T06:21:25;100185.91;;;2.45;100.00
44934;BME280;30667;43.614;1.442;2023-03-02T06:23:50;100193.91;;;2.45;100.00
44934;BME280;30667;43.614;1.442;2023-03-02T06:26:16;100192.41;;;2.49;100.00
44934;BME280;30667;43.614;1.442;2023-03-02T06:28:41;100190.00;;;2.47;100.00
44934;BME280;30667;43.614;1.442;2023-03-02T06:31:06;100198.81;;;2.48;100.00
44934;BME280;30667;43.614;1.442;2023-03-02T06:33:32;100195.09;;;2.49;100.00
44934;BME280;30667;43.614;1.442;2023-03-02T06:35:57;100194.06;;;2.50;100.00
44934;BME280;30667;43.614;1.442;2023-03-02T06:38:23;100198.84;;;2.66;100.00
44934;BME280;30667;43.614;1.442;2023-03-02T06:40:48;100209.00;;;2.58;100.00
44934;BME280;30667;43.614;1.442;2023-03-02T06:43:14;100205.13;;;2.53;100.00
44934;BME280;30667;43.614;1.442;2023-03-02T06:45:39;100202.66;;;2.52;100.00
44934;BME280;30667;43.614;1.442;2023-03-02T06:48:06;100211.38;;;2.47;100.00
44934;BME280;30667;43.614;1.442;2023-03-02T06:50:31;100214.25;;;2.46;100.00
44934;BME280;30667;43.614;1.442;2023-03-02T06:52:57;100214.63;;;2.49;100.00
44934;BME280;30667;43.614;1.442;2023-03-02T06:55:23;100213.56;;;2.50;100.00
44934;BME280;30667;43.614;1.442;2023-03-02T06:57:48;100216.63;;;2.54;100.00
44934;BME280;30667;43.614;1.442;2023-03-02T07:00:14;100221.97;;;2.54;100.00
44934;BME280;30667;43.614;1.442;2023-03-02T07:02:49;100223.38;;;2.57;100.00
44934;BME280;30667;43.614;1.442;2023-03-02T07:05:15;100225.19;;;2.63;100.00
44934;BME280;30667;43.614;1.442;2023-03-02T07:07:40;100230.88;;;2.66;100.00
44934;BME280;30667;43.614;1.442;2023-03-02T07:10:07;100229.72;;;2.62;100.00
44934;BME280;30667;43.614;1.442;2023-03-02T07:12:33;100237.34;;;2.59;100.00
44934;BME280;30667;43.614;1.442;2023-03-02T07:14:59;100237.94;;;2.61;100.00
44934;BME280;30667;43.614;1.442;2023-03-02T07:17:24;100239.13;;;2.65;100.00
44934;BME280;30667;43.614;1.442;2023-03-02T07:19:50;100243.22;;;2.67;100.00
44934;BME280;30667;43.614;1.442;2023-03-02T07:22:15;100250.22;;;2.68;100.00
44934;BME280;30667;43.614;1.442;2023-03-02T07:24:41;100250.13;;;2.75;100.00
44934;BME280;30667;43.614;1.442;2023-03-02T07:27:06;100249.56;;;2.73;100.00
44934;BME280;30667;43.614;1.442;2023-03-02T07:29:31;100245.81;;;2.74;100.00
44934;BME280;30667;43.614;1.442;2023-03-02T07:31:57;100252.75;;;2.82;100.00
44934;BME280;30667;43.614;1.442;2023-03-02T07:34:26;100251.94;;;2.81;100.00
44934;BME280;30667;43.614;1.442;2023-03-02T07:36:51;100259.59;;;2.78;100.00
44934;BME280;30667;43.614;1.442;2023-03-02T07:39:17;100260.38;;;2.78;100.00
44934;BME280;30667;43.614;1.442;2023-03-02T07:41:43;100263.28;;;2.77;100.00
44934;BME280;30667;43.614;1.442;2023-03-02T07:44:09;100268.41;;;2.78;100.00
44934;BME280;30667;43.614;1.442;2023-03-02T07:46:34;100271.06;;;2.78;100.00
44934;BME280;30667;43.614;1.442;2023-03-02T07:49:00;100260.75;;;2.82;100.00
44934;BME280;30667;43.614;1.442;2023-03-02T07:51:25;100260.75;;;2.82;100.00
44934;BME280;30667;43.614;1.442;2023-03-02T07:53:51;100261.13;;;2.85;100.00
44934;BME280;30667;43.614;1.442;2023-03-02T07:56:16;100258.69;;;2.84;100.00
44934;BME280;30667;43.614;1.442;2023-03-02T07:58:42;100265.88;;;2.83;100.00
44934;BME280;30667;43.614;1.442;2023-03-02T08:01:08;100264.03;;;2.84;100.00
44934;BME280;30667;43.614;1.442;2023-03-02T08:03:35;100263.59;;;2.87;100.00
44934;BME280;30667;43.614;1.442;2023-03-02T08:06:08;100252.88;;;2.87;100.00
44934;BME280;30667;43.614;1.442;2023-03-02T08:08:35;100265.59;;;2.91;100.00
44934;BME280;30667;43.614;1.442;2023-03-02T08:11:05;100254.09;;;2.91;100.00
44934;BME280;30667;43.614;1.442;2023-03-02T08:13:30;100250.19;;;2.94;100.00
44934;BME280;30667;43.614;1.442;2023-03-02T08:16:00;100254.25;;;2.96;100.00
44934;BME280;30667;43.614;1.442;2023-03-02T08:18:26;100255.22;;;3.02;100.00
44934;BME280;30667;43.614;1.442;2023-03-02T08:20:51;100255.59;;;3.05;100.00
44934;BME280;30667;43.614;1.442;2023-03-02T08:23:18;100258.28;;;3.05;100.00
44934;BME280;30667;43.614;1.442;2023-03-02T08:25:43;100249.44;;;3.05;100.00
44934;BME280;30667;43.614;1.442;2023-03-02T08:28:08;100253.06;;;3.11;100.00
44934;BME280;30667;43.614;1.442;2023-03-02T08:30:34;100250.97;;;3.13;100.00
44934;BME280;30667;43.614;1.442;2023-03-02T08:32:59;100253.44;;;3.14;100.00
44934;BME280;30667;43.614;1.442;2023-03-02T08:35:25;100251.38;;;3.16;100.00
44934;BME280;30667;43.614;1.442;2023-03-02T08:37:50;100261.00;;;3.17;100.00
44934;BME280;30667;43.614;1.442;2023-03-02T08:40:15;100261.63;;;3.19;100.00
44934;BME280;30667;43.614;1.442;2023-03-02T08:42:41;100261.41;;;3.21;100.00
44934;BME280;30667;43.614;1.442;2023-03-02T08:45:07;100263.84;;;3.22;100.00
44934;BME280;30667;43.614;1.442;2023-03-02T08:47:32;100259.53;;;3.21;100.00
44934;BME280;30667;43.614;1.442;2023-03-02T08:49:58;100264.22;;;3.26;100.00
44934;BME280;30667;43.614;1.442;2023-03-02T08:52:23;100263.38;;;3.25;100.00
44934;BME280;30667;43.614;1.442;2023-03-02T08:54:48;100261.31;;;3.27;100.00
44934;BME280;30667;43.614;1.442;2023-03-02T08:57:14;100268.28;;;3.28;100.00
44934;BME280;30667;43.614;1.442;2023-03-02T08:59:39;100265.38;;;3.30;100.00
44934;BME280;30667;43.614;1.442;2023-03-02T09:02:05;100266.59;;;3.34;100.00
44934;BME280;30667;43.614;1.442;2023-03-02T09:04:31;100270.06;;;3.35;100.00
44934;BME280;30667;43.614;1.442;2023-03-02T09:06:56;100263.84;;;3.41;100.00
44934;BME280;30667;43.614;1.442;2023-03-02T09:09:22;100267.31;;;3.41;100.00
44934;BME280;30667;43.614;1.442;2023-03-02T09:11:47;100269.75;;;3.43;100.00
44934;BME280;30667;43.614;1.442;2023-03-02T09:14:13;100268.16;;;3.42;99.90
44934;BME280;30667;43.614;1.442;2023-03-02T09:16:38;100278.63;;;3.43;100.00
44934;BME280;30667;43.614;1.442;2023-03-02T09:19:04;100275.72;;;3.45;100.00
44934;BME280;30667;43.614;1.442;2023-03-02T09:21:29;100276.91;;;3.49;100.00
44934;BME280;30667;43.614;1.442;2023-03-02T09:23:55;100273.41;;;3.49;100.00
44934;BME280;30667;43.614;1.442;2023-03-02T09:26:23;100278.91;;;3.54;100.00
44934;BME280;30667;43.614;1.442;2023-03-02T09:28:48;100278.22;;;3.58;100.00
44934;BME280;30667;43.614;1.442;2023-03-02T09:31:14;100278.81;;;3.60;100.00
44934;BME280;30667;43.614;1.442;2023-03-02T09:33:39;100270.56;;;3.62;100.00
44934;BME280;30667;43.614;1.442;2023-03-02T09:36:07;100280.38;;;3.68;100.00
44934;BME280;30667;43.614;1.442;2023-03-02T09:38:33;100284.91;;;3.68;100.00
44934;BME280;30667;43.614;1.442;2023-03-02T09:52:06;100277.34;;;3.95;99.98
44934;BME280;30667;43.614;1.442;2023-03-02T09:54:34;100272.97;;;4.00;99.93
44934;BME280;30667;43.614;1.442;2023-03-02T09:57:02;100277.38;;;4.07;99.46
44934;BME280;30667;43.614;1.442;2023-03-02T09:59:42;100276.69;;;4.11;99.80
44934;BME280;30667;43.614;1.442;2023-03-02T10:02:40;100281.38;;;4.16;99.00
44934;BME280;30667;43.614;1.442;2023-03-02T10:05:16;100283.94;;;4.23;99.42
44934;BME280;30667;43.614;1.442;2023-03-02T10:07:42;100267.88;;;4.23;98.63
44934;BME280;30667;43.614;1.442;2023-03-02T10:18:01;100280.75;;;4.32;99.59
44934;BME280;30667;43.614;1.442;2023-03-02T10:23:00;100280.03;;;4.37;98.79
44934;BME280;30667;43.614;1.442;2023-03-02T10:28:47;100286.91;;;4.45;99.00
44934;BME280;30667;43.614;1.442;2023-03-02T10:31:23;100288.09;;;4.49;98.60
44934;BME280;30667;43.614;1.442;2023-03-02T10:33:49;100288.78;;;4.44;98.95
44934;BME280;30667;43.614;1.442;2023-03-02T10:36:25;100285.66;;;4.47;98.99
44934;BME280;30667;43.614;1.442;2023-03-02T10:38:53;100281.22;;;4.53;99.78
44934;BME280;30667;43.614;1.442;2023-03-02T10:41:37;100283.09;;;4.52;99.32
44934;BME280;30667;43.614;1.442;2023-03-02T10:44:28;100279.94;;;4.55;99.84
44934;BME280;30667;43.614;1.442;2023-03-02T10:46:56;100276.69;;;4.53;99.67
44934;BME280;30667;43.614;1.442;2023-03-02T10:49:40;100282.03;;;4.53;99.97
44934;BME280;30667;43.614;1.442;2023-03-02T10:52:13;100284.50;;;4.55;99.73
44934;BME280;30667;43.614;1.442;2023-03-02T10:54:39;100277.25;;;4.55;99.61
44934;BME280;30667;43.614;1.442;2023-03-02T10:57:37;100276.56;;;4.60;99.91
44934;BME280;30667;43.614;1.442;2023-03-02T11:02:36;100285.53;;;4.66;100.00
44934;BME280;30667;43.614;1.442;2023-03-02T11:07:54;100282.41;;;4.69;100.00
44934;BME280;30667;43.614;1.442;2023-03-02T11:10:26;100285.00;;;4.76;100.00
44934;BME280;30667;43.614;1.442;2023-03-02T11:12:53;100278.56;;;4.77;100.00
44934;BME280;30667;43.614;1.442;2023-03-02T11:15:33;100278.66;;;4.82;100.00
44934;BME280;30667;43.614;1.442;2023-03-02T11:20:38;100279.38;;;4.89;99.49
44934;BME280;30667;43.614;1.442;2023-03-02T11:25:51;100276.44;;;5.02;100.00
44934;BME280;30667;43.614;1.442;2023-03-02T11:28:33;100271.69;;;5.04;99.03
44934;BME280;30667;43.614;1.442;2023-03-02T11:31:04;100265.88;;;5.07;98.64
44934;BME280;30667;43.614;1.442;2023-03-02T11:33:38;100273.53;;;5.16;98.98
44934;BME280;30667;43.614;1.442;2023-03-02T11:36:28;100271.91;;;5.15;98.24
44934;BME280;30667;43.614;1.442;2023-03-02T11:38:58;100269.78;;;5.17;97.70
44934;BME280;30667;43.614;1.442;2023-03-02T11:41:29;100270.88;;;5.16;97.48
44934;BME280;30667;43.614;1.442;2023-03-02T11:44:02;100269.69;;;5.23;97.52
44934;BME280;30667;43.614;1.442;2023-03-02T11:46:31;100277.28;;;5.26;96.98
44934;BME280;30667;43.614;1.442;2023-03-02T11:49:10;100271.16;;;5.31;97.18
44934;BME280;30667;43.614;1.442;2023-03-02T11:51:43;100267.91;;;5.41;96.55
44934;BME280;30667;43.614;1.442;2023-03-02T11:56:53;100265.41;;;5.51;95.80
44934;BME280;30667;43.614;1.442;2023-03-02T11:59:20;100266.47;;;5.50;95.33
44934;BME280;30667;43.614;1.442;2023-03-02T12:01:50;100256.66;;;5.56;95.73
44934;BME280;30667;43.614;1.442;2023-03-02T12:06:57;100257.44;;;5.68;94.76
44934;BME280;30667;43.614;1.442;2023-03-02T12:09:33;100259.13;;;5.74;94.02
44934;BME280;30667;43.614;1.442;2023-03-02T12:14:43;100259.72;;;5.76;92.19
44934;BME280;30667;43.614;1.442;2023-03-02T12:19:52;100263.69;;;5.86;91.07
44934;BME280;30667;43.614;1.442;2023-03-02T12:22:30;100246.25;;;5.88;91.35
44934;BME280;30667;43.614;1.442;2023-03-02T12:25:24;100248.22;;;5.93;91.58
44934;BME280;30667;43.614;1.442;2023-03-02T12:27:48;100238.50;;;6.04;90.95
44934;BME280;30667;43.614;1.442;2023-03-02T12:32:40;100238.44;;;5.98;87.58
44934;BME280;30667;43.614;1.442;2023-03-02T12:38:00;100228.09;;;6.07;86.95
44934;BME280;30667;43.614;1.442;2023-03-02T12:48:28;100223.13;;;5.99;85.96
44934;BME280;30667;43.614;1.442;2023-03-02T12:50:59;100224.50;;;6.02;85.74
44934;BME280;30667;43.614;1.442;2023-03-02T12:53:26;100226.38;;;6.01;84.51
44934;BME280;30667;43.614;1.442;2023-03-02T12:55:52;100228.81;;;6.03;84.04
44934;BME280;30667;43.614;1.442;2023-03-02T12:58:23;100228.88;;;6.08;83.79
44934;BME280;30667;43.614;1.442;2023-03-02T13:00:51;100223.88;;;6.11;82.91
44934;BME280;30667;43.614;1.442;2023-03-02T13:03:18;100221.19;;;6.11;81.32
44934;BME280;30667;43.614;1.442;2023-03-02T13:05:44;100217.91;;;6.09;80.23
44934;BME280;30667;43.614;1.442;2023-03-02T13:08:20;100221.31;;;6.05;80.60
44934;BME280;30667;43.614;1.442;2023-03-02T13:10:53;100216.06;;;6.10;81.30
44934;BME280;30667;43.614;1.442;2023-03-02T13:13:22;100214.84;;;6.17;81.87
44934;BME280;30667;43.614;1.442;2023-03-02T13:15:58;100216.44;;;6.18;82.59
44934;BME280;30667;43.614;1.442;2023-03-02T13:18:27;100216.69;;;6.17;80.01
44934;BME280;30667;43.614;1.442;2023-03-02T13:20:57;100215.88;;;6.16;79.37
44934;BME280;30667;43.614;1.442;2023-03-02T13:23:23;100210.75;;;6.15;79.83
44934;BME280;30667;43.614;1.442;2023-03-02T13:25:55;100217.28;;;6.19;79.78
44934;BME280;30667;43.614;1.442;2023-03-02T13:31:21;100215.41;;;6.20;79.05
44934;BME280;30667;43.614;1.442;2023-03-02T13:33:48;100219.63;;;6.15;78.59
44934;BME280;30667;43.614;1.442;2023-03-02T13:36:21;100222.31;;;6.15;79.66
44934;BME280;30667;43.614;1.442;2023-03-02T13:38:50;100215.88;;;6.16;79.35
44934;BME280;30667;43.614;1.442;2023-03-02T13:41:31;100209.94;;;6.14;79.23
44934;BME280;30667;43.614;1.442;2023-03-02T13:43:57;100220.06;;;6.24;80.57
44934;BME280;30667;43.614;1.442;2023-03-02T13:46:34;100223.78;;;6.23;78.86
44934;BME280;30667;43.614;1.442;2023-03-02T13:49:04;100214.00;;;6.17;79.02
44934;BME280;30667;43.614;1.442;2023-03-02T13:51:33;100221.50;;;6.15;79.10
44934;BME280;30667;43.614;1.442;2023-03-02T13:54:02;100219.38;;;6.17;80.01
44934;BME280;30667;43.614;1.442;2023-03-02T13:56:33;100217.28;;;6.19;80.76
44934;BME280;30667;43.614;1.442;2023-03-02T13:59:03;100224.75;;;6.17;81.21
44934;BME280;30667;43.614;1.442;2023-03-02T14:01:28;100220.69;;;6.14;81.69
44934;BME280;30667;43.614;1.442;2023-03-02T14:03:54;100219.38;;;6.17;82.86
44934;BME280;30667;43.614;1.442;2023-03-02T14:06:19;100220.69;;;6.14;82.39
44934;BME280;30667;43.614;1.442;2023-03-02T14:08:45;100219.31;;;6.12;83.52
44934;BME280;30667;43.614;1.442;2023-03-02T14:11:13;100216.94;;;6.15;83.58